createdAt,value
2019-03-22T00:00:38.895Z,114.93
2019-03-22T00:03:07.952Z,134.00
2019-03-22T00:05:38.686Z,126.07
2019-03-22T00:08:10.024Z,120.17
2019-03-22T00:10:40.753Z,100.03
2019-03-22T00:13:11.793Z,101.27
2019-03-22T00:15:52.258Z,104.80
2019-03-22T00:18:23.148Z,130.63
2019-03-22T00:20:54.349Z,118.93
2019-03-22T00:23:26.526Z,110.27
2019-03-22T00:25:57.858Z,110.23
2019-03-22T00:28:29.508Z,101.63
2019-03-22T00:31:08.445Z,122.00
2019-03-22T00:33:39.895Z,124.73
2019-03-22T00:36:10.507Z,113.07
2019-03-22T00:38:41.060Z,111.37
2019-03-22T00:41:14.871Z,122.27
2019-03-22T00:46:39.245Z,132.27
2019-03-22T00:49:13.173Z,129.77
2019-03-22T00:52:08.992Z,130.33
2019-03-22T00:54:43.114Z,122.77
2019-03-22T00:57:27.775Z,114.33
2019-03-22T00:59:54.281Z,123.47
2019-03-22T01:02:25.839Z,115.50
2019-03-22T01:04:57.210Z,107.97
2019-03-22T01:07:29.856Z,107.67
2019-03-22T01:10:05.117Z,105.10
2019-03-22T01:12:35.730Z,117.33
2019-03-22T01:15:12.728Z,115.27
2019-03-22T01:17:43.157Z,114.33
2019-03-22T01:20:16.340Z,112.20
2019-03-22T01:22:47.057Z,114.57
2019-03-22T01:25:17.699Z,105.93
2019-03-22T01:27:50.151Z,109.83
2019-03-22T01:30:22.352Z,107.60
2019-03-22T01:32:53.476Z,111.90
2019-03-22T01:35:28.436Z,104.93
2019-03-22T01:37:58.953Z,112.90
2019-03-22T01:40:29.575Z,109.30
2019-03-22T01:42:59.995Z,116.33
2019-03-22T01:45:31.760Z,97.27
2019-03-22T01:48:03.125Z,102.33
2019-03-22T01:50:34.974Z,105.67
2019-03-22T01:53:35.152Z,110.47
2019-03-22T01:56:11.039Z,107.33
2019-03-22T01:58:45.281Z,110.67
2019-03-22T02:01:21.126Z,111.10
2019-03-22T02:03:54.719Z,111.80
2019-03-22T02:06:26.376Z,108.00
2019-03-22T02:09:08.290Z,99.30
2019-03-22T02:14:39.025Z,97.97
2019-03-22T02:17:10.063Z,116.00
2019-03-22T02:19:48.358Z,112.33
2019-03-22T02:22:40.795Z,108.87
2019-03-22T02:25:19.942Z,110.63
2019-03-22T02:27:50.768Z,112.50
2019-03-22T02:30:24.479Z,113.77
2019-03-22T02:32:55.821Z,103.37
2019-03-22T02:35:29.776Z,104.27
2019-03-22T02:38:03.869Z,108.23
2019-03-22T02:40:38.158Z,107.93
2019-03-22T02:43:11.238Z,115.10
2019-03-22T02:45:44.955Z,94.00
2019-03-22T02:48:22.773Z,100.13
2019-03-22T02:50:56.279Z,97.83
2019-03-22T02:53:30.564Z,106.73
2019-03-22T02:56:01.868Z,104.67
2019-03-22T02:58:32.535Z,110.87
2019-03-22T03:01:05.956Z,105.47
2019-03-22T03:03:37.798Z,103.80
2019-03-22T03:06:07.914Z,104.07
2019-03-22T03:08:38.036Z,99.87
2019-03-22T03:11:08.468Z,111.93
2019-03-22T03:13:40.348Z,97.40
2019-03-22T03:16:12.147Z,107.70
2019-03-22T03:18:42.823Z,103.33
2019-03-22T03:21:12.937Z,114.87
2019-03-22T03:23:42.941Z,99.73
2019-03-22T03:26:13.275Z,104.30
2019-03-22T03:28:43.918Z,97.97
2019-03-22T03:31:14.549Z,104.03
2019-03-22T03:33:45.168Z,101.90
2019-03-22T03:36:15.788Z,97.63
2019-03-22T03:38:45.927Z,108.67
2019-03-22T03:41:16.767Z,97.27
2019-03-22T03:43:47.808Z,96.23
2019-03-22T03:46:18.134Z,102.23
2019-03-22T03:48:59.420Z,89.87
2019-03-22T03:51:30.428Z,89.77
2019-03-22T03:54:01.891Z,98.17
2019-03-22T03:57:04.895Z,97.17
2019-03-22T03:59:36.627Z,103.80
2019-03-22T04:02:09.948Z,101.13
2019-03-22T04:04:54.172Z,102.13
2019-03-22T04:07:25.551Z,102.73
2019-03-22T04:09:57.090Z,94.40
2019-03-22T04:12:29.159Z,100.30
2019-03-22T04:15:00.597Z,101.83
2019-03-22T04:17:37.064Z,96.60
2019-03-22T04:20:08.806Z,91.43
2019-03-22T04:22:42.939Z,99.80
2019-03-22T04:25:15.494Z,100.87
2019-03-22T04:27:48.908Z,96.13
2019-03-22T04:30:19.958Z,98.93
2019-03-22T04:32:50.779Z,88.17
2019-03-22T04:35:21.418Z,92.63
2019-03-22T04:37:53.388Z,88.03
2019-03-22T04:40:25.030Z,99.03
2019-03-22T04:42:55.577Z,100.47
2019-03-22T04:45:26.895Z,120.47
2019-03-22T04:48:01.626Z,106.63
2019-03-22T04:50:42.927Z,140.53
2019-03-22T04:56:17.846Z,260.77
2019-03-22T04:58:50.848Z,218.30
2019-03-22T05:01:22.095Z,257.57
2019-03-22T05:03:53.950Z,228.00
2019-03-22T05:06:24.167Z,226.03
2019-03-22T05:08:56.143Z,240.97
2019-03-22T05:11:27.575Z,182.80
2019-03-22T05:14:00.376Z,212.33
2019-03-22T05:16:38.074Z,160.70
2019-03-22T05:19:21.698Z,161.13
2019-03-22T05:21:52.725Z,150.73
2019-03-22T05:24:26.553Z,125.50
2019-03-22T05:27:01.465Z,121.70
2019-03-22T05:29:41.413Z,130.07
2019-03-22T05:32:19.852Z,111.63
2019-03-22T05:35:03.114Z,106.70
2019-03-22T05:37:34.731Z,112.20
2019-03-22T05:40:15.090Z,116.80
2019-03-22T05:43:04.568Z,110.77
2019-03-22T05:45:50.044Z,104.47
2019-03-22T05:48:28.149Z,106.17
2019-03-22T05:51:11.723Z,98.97
2019-03-22T05:53:46.005Z,110.37
2019-03-22T05:56:18.055Z,112.60
2019-03-22T05:58:49.533Z,100.90
2019-03-22T06:07:15.877Z,93.00
2019-03-22T06:09:47.137Z,89.63
2019-03-22T06:12:21.960Z,82.80
2019-03-22T06:14:52.154Z,84.77
2019-03-22T06:17:24.740Z,81.80
2019-03-22T06:19:55.371Z,80.13
2019-03-22T06:22:26.420Z,85.97
2019-03-22T06:24:58.786Z,87.93
2019-03-22T06:27:36.797Z,79.53
2019-03-22T06:30:27.597Z,84.13
2019-03-22T06:33:01.515Z,77.07
2019-03-22T06:35:31.815Z,87.10
2019-03-22T06:38:14.537Z,80.97
2019-03-22T06:40:47.723Z,75.67
2019-03-22T06:43:20.917Z,75.50
2019-03-22T06:45:55.338Z,71.53
2019-03-22T06:48:27.320Z,76.43
2019-03-22T06:51:15.556Z,71.40
2019-03-22T06:53:53.856Z,82.80
2019-03-22T06:56:28.996Z,79.60
2019-03-22T06:59:01.884Z,81.80
2019-03-22T07:01:36.024Z,77.47
2019-03-22T07:04:06.715Z,78.63
2019-03-22T07:06:38.146Z,78.53
2019-03-22T07:09:09.215Z,70.37
2019-03-22T07:11:41.871Z,79.40
2019-03-22T07:14:14.895Z,67.13
2019-03-22T07:16:45.406Z,67.23
2019-03-22T07:19:18.076Z,69.63
2019-03-22T07:21:51.885Z,59.03
2019-03-22T07:24:21.896Z,59.67
2019-03-22T07:26:54.383Z,62.23
2019-03-22T07:29:31.191Z,71.40
2019-03-22T07:32:04.545Z,58.10
2019-03-22T07:34:35.480Z,61.40
2019-03-22T07:37:06.217Z,48.47
2019-03-22T07:39:37.677Z,55.90
2019-03-22T07:42:07.896Z,48.47
2019-03-22T07:44:38.726Z,51.97
2019-03-22T07:47:10.896Z,55.87
2019-03-22T07:49:46.539Z,52.53
2019-03-22T07:52:24.345Z,46.03
2019-03-22T07:54:55.144Z,47.50
2019-03-22T07:57:25.814Z,46.00
2019-03-22T07:59:58.595Z,46.37
2019-03-22T08:02:28.816Z,50.97
2019-03-22T08:05:09.476Z,63.33
2019-03-22T08:07:44.920Z,62.83
2019-03-22T08:10:16.886Z,59.77
2019-03-22T08:12:51.506Z,57.37
2019-03-22T08:15:37.024Z,49.07
2019-03-22T08:37:37.757Z,66.43
2019-03-22T08:40:17.503Z,58.00
2019-03-22T08:43:09.835Z,55.83
2019-03-22T08:46:08.038Z,59.67
2019-03-22T08:49:13.111Z,48.67
2019-03-22T08:51:52.486Z,61.00
2019-03-22T08:54:23.478Z,54.70
2019-03-22T09:00:39.307Z,55.93
2019-03-22T09:03:16.416Z,62.33
2019-03-22T09:05:50.829Z,48.63
2019-03-22T09:08:21.865Z,46.43
2019-03-22T09:10:56.165Z,42.83
2019-03-22T09:13:36.152Z,46.67
2019-03-22T09:16:12.340Z,42.53
2019-03-22T09:18:47.777Z,41.77
2019-03-22T09:28:23.845Z,41.83
2019-03-22T09:31:10.122Z,41.33
2019-03-22T09:33:39.797Z,45.23
2019-03-22T09:36:13.569Z,48.03
2019-03-22T09:38:44.295Z,42.70
2019-03-22T09:41:14.413Z,41.63
2019-03-22T09:46:47.730Z,38.70
2019-03-22T09:49:37.510Z,43.23
2019-03-22T09:52:13.089Z,40.47
2019-03-22T09:54:56.155Z,40.50
2019-03-22T09:57:40.860Z,42.63
2019-03-22T10:00:15.908Z,35.97
2019-03-22T10:02:53.669Z,48.43
2019-03-22T10:05:31.187Z,37.00
2019-03-22T10:08:08.669Z,33.70
2019-03-22T10:10:50.504Z,41.00
2019-03-22T10:17:07.430Z,47.67
2019-03-22T10:19:58.826Z,40.73
2019-03-22T10:22:46.852Z,49.60
2019-03-22T10:25:20.852Z,49.20
2019-03-22T10:27:54.232Z,40.97
2019-03-22T10:30:29.686Z,48.03
2019-03-22T10:33:22.130Z,48.20
2019-03-22T10:35:47.846Z,49.60
2019-03-22T10:38:30.897Z,47.67
2019-03-22T10:40:58.049Z,42.80
2019-03-22T10:50:01.172Z,45.77
2019-03-22T10:52:33.116Z,46.30
2019-03-22T10:55:29.320Z,38.53
2019-03-22T10:57:48.094Z,37.93
2019-03-22T11:00:19.537Z,43.97
2019-03-22T11:02:50.884Z,46.10
2019-03-22T11:05:40.459Z,42.77
2019-03-22T11:08:26.970Z,49.60
2019-03-22T11:11:00.125Z,48.30
2019-03-22T11:13:38.376Z,49.60
2019-03-22T11:19:06.366Z,50.93
2019-03-22T11:21:40.484Z,42.87
2019-03-22T11:24:24.190Z,44.40
2019-03-22T11:30:32.545Z,42.77
2019-03-22T11:33:07.895Z,50.43
2019-03-22T11:35:55.157Z,52.03
2019-03-22T11:38:26.554Z,46.50
2019-03-22T11:41:00.157Z,47.63
2019-03-22T11:43:31.303Z,50.77
2019-03-22T11:46:02.855Z,51.53
2019-03-22T11:48:38.941Z,51.13
2019-03-22T11:51:11.705Z,46.33
2019-03-22T11:53:42.416Z,44.27
2019-03-22T11:56:16.435Z,58.70
2019-03-22T11:58:50.855Z,49.53
2019-03-22T12:01:22.690Z,52.67
2019-03-22T12:03:58.678Z,58.33
2019-03-22T12:06:37.788Z,51.57
2019-03-22T12:09:12.843Z,51.43
2019-03-22T12:11:44.925Z,53.87
2019-03-22T12:14:16.036Z,53.97
2019-03-22T12:16:57.930Z,48.13
2019-03-22T12:19:38.498Z,48.57
2019-03-22T12:22:10.166Z,49.10
2019-03-22T12:24:42.313Z,49.67
2019-03-22T12:27:15.112Z,47.60
2019-03-22T12:29:46.039Z,49.07
2019-03-22T12:32:16.565Z,51.43
2019-03-22T12:34:48.420Z,45.60
2019-03-22T12:37:19.157Z,48.57
2019-03-22T12:39:49.994Z,48.77
2019-03-22T12:42:23.077Z,48.50
2019-03-22T12:44:54.736Z,49.33
2019-03-22T12:47:32.952Z,46.23
2019-03-22T12:50:03.614Z,48.43
2019-03-22T12:52:36.780Z,43.13
2019-03-22T12:55:08.314Z,47.10
2019-03-22T12:57:38.542Z,43.97
2019-03-22T13:00:16.755Z,46.47
2019-03-22T13:02:50.144Z,45.73
2019-03-22T13:08:09.016Z,46.90
2019-03-22T13:10:40.057Z,42.83
2019-03-22T13:13:16.825Z,45.57
2019-03-22T13:15:51.662Z,48.77
2019-03-22T13:18:21.984Z,45.37
2019-03-22T13:20:59.035Z,42.37
2019-03-22T13:23:29.703Z,47.13
2019-03-22T13:26:10.159Z,38.83
2019-03-22T13:28:40.895Z,44.27
2019-03-22T13:31:12.351Z,40.77
2019-03-22T13:33:42.767Z,37.57
2019-03-22T13:36:13.414Z,39.17
2019-03-22T13:38:45.056Z,40.43
2019-03-22T13:41:21.734Z,38.13
2019-03-22T13:43:52.144Z,41.13
2019-03-22T13:46:23.099Z,43.80
2019-03-22T13:52:17.714Z,40.50
2019-03-22T13:54:47.814Z,40.37
2019-03-22T13:57:18.874Z,42.73
2019-03-22T14:00:04.473Z,44.47
2019-03-22T14:05:25.667Z,43.17
2019-03-22T14:07:56.614Z,36.97
2019-03-22T14:10:31.336Z,44.07
2019-03-22T14:13:02.382Z,43.23
2019-03-22T14:15:33.112Z,37.33
2019-03-22T14:18:11.732Z,60.73
2019-03-22T14:20:43.492Z,38.80
2019-03-22T14:23:14.531Z,44.00
2019-03-22T14:25:47.825Z,42.73
2019-03-22T14:28:20.808Z,37.50
2019-03-22T14:30:51.331Z,44.17
2019-03-22T14:33:21.867Z,71.53
2019-03-22T14:36:04.474Z,38.27
2019-03-22T14:38:35.009Z,47.57
2019-03-22T14:41:05.427Z,42.93
2019-03-22T14:43:35.754Z,38.80
2019-03-22T14:46:09.774Z,42.77
2019-03-22T14:48:40.495Z,39.37
2019-03-22T14:51:10.822Z,48.17
2019-03-22T14:53:41.864Z,41.00
2019-03-22T14:56:14.748Z,43.70
2019-03-22T14:58:48.164Z,37.07
2019-03-22T15:01:19.395Z,43.00
2019-03-22T15:03:54.524Z,44.67
2019-03-22T15:06:27.826Z,47.60
2019-03-22T15:08:58.035Z,52.57
2019-03-22T15:11:28.254Z,59.47
2019-03-22T15:14:19.437Z,49.83
2019-03-22T15:17:02.487Z,63.93
2019-03-22T15:19:52.155Z,49.47
2019-03-22T15:22:40.434Z,67.30
2019-03-22T15:25:33.585Z,59.83
2019-03-22T15:28:25.635Z,54.77
2019-03-22T15:31:15.805Z,60.67
2019-03-22T15:34:08.159Z,76.00
2019-03-22T15:37:06.601Z,86.50
2019-03-22T15:39:56.015Z,75.80
2019-03-22T15:42:28.668Z,60.37
2019-03-22T15:47:51.955Z,55.80
2019-03-22T15:50:31.516Z,47.43
2019-03-22T15:53:07.054Z,49.90
2019-03-22T15:55:40.127Z,48.73
2019-03-22T15:58:14.156Z,56.03
2019-03-22T16:00:48.955Z,61.40
2019-03-22T16:03:19.396Z,63.00
2019-03-22T16:05:50.173Z,52.43
2019-03-22T16:08:21.984Z,57.33
2019-03-22T16:10:52.305Z,76.77
2019-03-22T16:13:22.414Z,78.77
2019-03-22T16:15:52.855Z,58.03
2019-03-22T16:18:24.404Z,91.73
2019-03-22T16:20:59.969Z,95.27
2019-03-22T16:23:27.814Z,63.13
2019-03-22T16:25:58.146Z,73.80
2019-03-22T16:28:28.275Z,41.03
2019-03-22T16:30:58.686Z,41.73
2019-03-22T16:33:29.015Z,42.10
2019-03-22T16:35:59.545Z,40.40
2019-03-22T16:38:30.065Z,34.90
2019-03-22T16:41:00.714Z,35.80
2019-03-22T16:43:31.324Z,35.57
2019-03-22T16:46:02.666Z,33.13
2019-03-22T16:48:32.795Z,42.53
2019-03-22T16:51:03.624Z,61.27
2019-03-22T16:53:35.145Z,73.53
2019-03-22T16:56:06.015Z,72.37
2019-03-22T16:58:36.565Z,65.20
2019-03-22T17:01:07.685Z,71.00
2019-03-22T17:03:38.415Z,78.03
2019-03-22T17:06:08.545Z,80.87
2019-03-22T17:08:39.075Z,80.03
2019-03-22T17:11:09.494Z,98.23
2019-03-22T17:13:39.935Z,114.53
2019-03-22T17:16:10.162Z,142.83
2019-03-22T17:18:40.055Z,115.33
2019-03-22T17:21:10.154Z,143.67
2019-03-22T17:23:40.394Z,121.43
2019-03-22T17:26:11.955Z,92.37
2019-03-22T17:28:44.325Z,86.73
2019-03-22T17:31:14.847Z,86.30
2019-03-22T17:33:45.494Z,101.30
2019-03-22T17:36:23.161Z,101.23
2019-03-22T17:38:54.005Z,82.13
2019-03-22T17:41:23.935Z,77.43
2019-03-22T17:43:54.155Z,64.30
2019-03-22T17:46:24.365Z,49.00
2019-03-22T17:48:54.488Z,49.07
2019-03-22T17:51:46.426Z,54.27
2019-03-22T17:54:46.025Z,52.23
2019-03-22T17:57:21.696Z,46.77
2019-03-22T18:00:00.913Z,47.60
2019-03-22T18:02:37.077Z,45.33
2019-03-22T18:05:11.144Z,41.10
2019-03-22T18:07:42.956Z,44.17
2019-03-22T18:10:13.146Z,39.33
2019-03-22T18:12:43.166Z,37.57
2019-03-22T18:15:13.395Z,37.73
2019-03-22T18:17:43.516Z,37.93
2019-03-22T18:20:14.656Z,48.43
2019-03-22T18:22:44.985Z,41.07
2019-03-22T18:25:15.893Z,40.60
2019-03-22T18:27:46.976Z,45.07
2019-03-22T18:30:17.486Z,44.50
2019-03-22T18:35:38.837Z,39.70
2019-03-22T18:38:12.008Z,46.37
2019-03-22T18:40:46.225Z,47.30
2019-03-22T19:05:49.767Z,44.80
2019-03-22T19:08:25.436Z,70.77
2019-03-22T19:10:58.605Z,67.43
2019-03-22T19:13:33.955Z,62.37
2019-03-22T19:16:04.891Z,62.83
2019-03-22T19:18:36.035Z,66.93
2019-03-22T19:21:07.487Z,56.97
2019-03-22T19:23:43.646Z,57.57
2019-03-22T19:26:14.497Z,61.27
2019-03-22T19:28:46.956Z,55.70
2019-03-22T19:31:18.149Z,57.63
2019-03-22T19:33:49.036Z,60.67
2019-03-22T19:36:22.962Z,63.57
2019-03-22T19:38:54.596Z,61.37
2019-03-22T19:41:26.864Z,69.83
2019-03-22T19:43:59.136Z,69.03
2019-03-22T19:46:36.764Z,65.17
2019-03-22T19:49:15.582Z,60.93
2019-03-22T19:51:48.853Z,114.83
2019-03-22T19:54:22.206Z,171.17
2019-03-22T19:56:57.490Z,155.60
2019-03-22T19:59:38.244Z,160.27
2019-03-22T20:02:11.341Z,124.63
2019-03-22T20:04:43.425Z,123.57
2019-03-22T20:07:26.561Z,116.30
2019-03-22T20:09:52.636Z,101.00
2019-03-22T20:12:25.540Z,103.87
2019-03-22T20:14:56.883Z,105.40
2019-03-22T20:17:27.626Z,79.53
2019-03-22T20:19:58.876Z,68.07
2019-03-22T20:22:30.737Z,69.77
2019-03-22T20:25:02.276Z,73.17
2019-03-22T20:27:37.016Z,79.83
2019-03-22T20:30:11.417Z,77.80
2019-03-22T20:32:43.796Z,71.43
2019-03-22T20:35:17.073Z,72.50
2019-03-22T20:37:49.663Z,74.43
2019-03-22T20:40:26.034Z,72.17
2019-03-22T20:43:03.231Z,70.37
2019-03-22T20:45:34.660Z,63.17
2019-03-22T20:48:09.606Z,63.23
2019-03-22T20:50:52.616Z,69.30
2019-03-22T20:53:24.676Z,65.70
2019-03-22T20:55:56.124Z,80.90
2019-03-22T20:58:28.096Z,96.67
2019-03-22T21:00:58.516Z,94.63
2019-03-22T21:03:30.067Z,102.37
2019-03-22T21:06:04.589Z,103.73
2019-03-22T21:08:35.030Z,100.07
2019-03-22T21:11:09.026Z,101.63
2019-03-22T21:13:40.146Z,91.97
2019-03-22T21:16:12.543Z,98.77
2019-03-22T21:18:43.685Z,87.37
2019-03-22T21:21:13.605Z,83.47
2019-03-22T21:23:43.815Z,87.57
2019-03-22T21:26:14.147Z,90.53
2019-03-22T21:28:44.055Z,93.83
2019-03-22T21:31:15.202Z,92.33
2019-03-22T21:33:45.415Z,86.93
2019-03-22T21:36:19.338Z,89.03
2019-03-22T21:38:53.146Z,97.20
2019-03-22T21:41:23.867Z,93.63
2019-03-22T21:43:53.983Z,91.77
2019-03-22T21:46:24.152Z,98.20
2019-03-22T21:48:54.531Z,106.00
2019-03-22T21:51:24.975Z,102.93
2019-03-22T21:53:55.175Z,99.70
2019-03-22T21:56:26.534Z,100.53
2019-03-22T21:58:56.975Z,93.57
2019-03-22T22:01:27.075Z,105.00
2019-03-22T22:03:57.318Z,102.80
2019-03-22T22:06:27.719Z,103.57
2019-03-22T22:08:57.838Z,111.47
2019-03-22T22:11:28.574Z,116.10
2019-03-22T22:13:59.020Z,105.70
2019-03-22T22:16:29.526Z,106.50
2019-03-22T22:18:59.859Z,104.67
2019-03-22T22:21:29.756Z,99.13
2019-03-22T22:23:59.799Z,90.50
2019-03-22T22:26:29.918Z,91.53
2019-03-22T22:29:02.798Z,97.17
2019-03-22T22:31:33.011Z,90.90
2019-03-22T22:34:03.143Z,94.93
2019-03-22T22:36:33.669Z,92.87
2019-03-22T22:39:04.583Z,98.93
2019-03-22T22:41:35.443Z,96.17
2019-03-22T22:44:06.885Z,93.37
2019-03-22T22:46:37.410Z,99.60
2019-03-22T22:49:07.838Z,89.97
2019-03-22T22:51:40.938Z,90.07
2019-03-22T22:54:11.231Z,98.93
2019-03-22T22:56:41.764Z,99.37
2019-03-22T22:59:11.682Z,95.83
2019-03-22T23:01:41.594Z,96.97
2019-03-22T23:04:11.943Z,101.60
2019-03-22T23:06:41.957Z,104.07
2019-03-22T23:09:12.275Z,95.50
2019-03-22T23:11:42.693Z,99.87
2019-03-22T23:14:13.439Z,101.87
2019-03-22T23:16:43.532Z,102.27
2019-03-22T23:19:13.755Z,103.87
2019-03-22T23:21:43.792Z,96.83
2019-03-22T23:24:13.816Z,99.30
2019-03-22T23:26:43.704Z,97.63
2019-03-22T23:29:13.822Z,95.60
2019-03-22T23:31:43.837Z,96.83
2019-03-22T23:34:14.069Z,99.53
2019-03-22T23:36:44.909Z,90.30
2019-03-22T23:39:15.016Z,88.27
2019-03-22T23:41:45.557Z,89.27
2019-03-22T23:44:15.762Z,90.47
2019-03-22T23:46:48.766Z,94.83
2019-03-22T23:49:19.098Z,102.17
2019-03-22T23:51:49.501Z,87.70
2019-03-22T23:54:19.722Z,94.73
2019-03-22T23:56:49.634Z,93.77
2019-03-22T23:59:19.990Z,94.70
